Ripon, Wisconsin
Current Conditions -  °F | °C
As of 6:53 PM on Sunday 21 Dec 2014 (Local Time) from KOSH Reporting Station
Haze Haze  
Wind Chill: 27°   Ceiling: 2700
Heat Index: 35°   Visibility: 6mi
Dew Point: 30°   Wind: 12mph
Humidity: 82%   Direction: 170°S
Pressure: 29.99"   Gusts: NA
Location:  43.85°N, 88.84°W
Report Text: KOSH 220053Z 17010KT 6SM HZ OVC027 02/M01 A2999 RMK AO2 SLP168 T00171011
Loading
Personal Weather Stations






























Interactive Weather Map New forecast layout! Learn more

10-Day Weather Forecast

Advertisements
Track Severe Weather on mobile